Time;durP1;ratioP1;P1;durP2;ratioP2;P2;SDS_P1;SDS_P2;PMS_P1;PMS_P2;Temp;Humidity;BMP_temperature;BMP_pressure;BME280_temperature;BME280_humidity;BME280_pressure;Samples;Min_cycle;Max_cycle;Signal;HPM_P1;HPM_P2
2023/04/09 04:06:06;;;;;;;3.63;3.33;;;7.40;99.90;;;;;;4989490;23;20236;-64
2023/04/09 04:08:32;;;;;;;2.13;1.93;;;7.30;99.90;;;;;;4956258;28;20179;-65
2023/04/09 04:11:04;;;;;;;1.43;1.43;;;7.40;99.90;;;;;;4955356;29;20279;-65
2023/04/09 04:13:30;;;;;;;1.15;1.15;;;7.40;99.90;;;;;;4956441;29;20173;-65
2023/04/09 04:15:55;;;;;;;1.63;1.53;;;7.30;99.90;;;;;;4956711;29;20192;-65
2023/04/09 04:18:21;;;;;;;1.53;1.30;;;7.30;99.90;;;;;;4956989;29;20301;-65
2023/04/09 04:20:46;;;;;;;4.47;3.27;;;7.30;99.90;;;;;;4955288;29;20682;-64
2023/04/09 04:23:12;;;;;;;1.80;1.80;;;7.30;99.90;;;;;;4956040;29;20533;-65
2023/04/09 04:25:41;;;;;;;2.00;1.90;;;7.30;99.90;;;;;;4956597;29;20202;-66
2023/04/09 04:28:07;;;;;;;1.88;1.67;;;7.30;99.90;;;;;;4956877;28;20592;-66
2023/04/09 04:30:33;;;;;;;1.48;1.05;;;7.30;99.90;;;;;;4939453;29;20183;-66
2023/04/09 04:32:59;;;;;;;2.00;1.37;;;7.20;99.90;;;;;;4956331;29;20664;-66
2023/04/09 04:35:24;;;;;;;2.47;2.30;;;7.20;99.90;;;;;;4955203;28;20191;-65
2023/04/09 04:37:50;;;;;;;2.47;2.30;;;7.20;99.90;;;;;;4954509;29;20948;-66
2023/04/09 04:40:16;;;;;;;1.37;1.27;;;7.10;99.90;;;;;;4956390;29;20617;-66
2023/04/09 04:42:41;;;;;;;1.67;1.57;;;7.20;99.90;;;;;;4955172;29;20210;-65
2023/04/09 04:45:07;;;;;;;6.57;5.57;;;7.10;99.90;;;;;;4955905;29;20219;-66
2023/04/09 04:47:33;;;;;;;2.45;2.35;;;7.10;99.90;;;;;;4956034;28;20181;-66
2023/04/09 04:49:59;;;;;;;2.00;1.90;;;7.10;99.90;;;;;;4953591;28;20263;-65
2023/04/09 04:52:25;;;;;;;1.73;1.63;;;7.10;99.90;;;;;;4956301;28;20551;-65
2023/04/09 04:54:50;;;;;;;4.10;2.20;;;7.10;99.90;;;;;;4954658;29;20203;-65
2023/04/09 04:57:16;;;;;;;2.73;2.57;;;7.10;99.90;;;;;;4956531;28;20925;-66
2023/04/09 04:59:41;;;;;;;1.37;1.37;;;7.10;99.90;;;;;;4955940;28;20277;-66
2023/04/09 05:02:07;;;;;;;1.33;1.33;;;7.20;99.90;;;;;;4955807;28;20173;-66
2023/04/09 05:04:33;;;;;;;2.30;2.10;;;7.20;99.90;;;;;;4953566;29;20200;-66
2023/04/09 05:06:58;;;;;;;1.90;1.80;;;7.20;99.90;;;;;;4954341;29;20188;-67
2023/04/09 05:09:24;;;;;;;0.87;0.87;;;7.30;99.90;;;;;;4955874;29;20681;-66
2023/04/09 05:11:50;;;;;;;2.77;2.10;;;7.50;99.90;;;;;;4955835;28;20176;-67
2023/04/09 05:14:16;;;;;;;1.20;1.20;;;7.70;99.90;;;;;;4955098;28;20447;-67
2023/04/09 05:16:41;;;;;;;3.00;2.80;;;8.00;99.90;;;;;;4954508;29;20643;-68
2023/04/09 05:19:07;;;;;;;6.93;2.93;;;8.30;99.90;;;;;;4955282;29;20209;-67
2023/04/09 05:21:32;;;;;;;2.03;1.93;;;8.60;99.90;;;;;;4949933;29;20170;-66
2023/04/09 05:23:58;;;;;;;3.17;2.17;;;8.90;99.90;;;;;;4946183;28;20221;-67
2023/04/09 05:26:24;;;;;;;4.43;3.97;;;9.10;99.90;;;;;;4944827;29;20202;-67
2023/04/09 05:28:51;;;;;;;2.53;2.30;;;9.20;99.90;;;;;;4954213;29;20216;-68
2023/04/09 05:31:16;;;;;;;4.20;3.80;;;9.30;99.90;;;;;;4955724;28;20168;-67
2023/04/09 05:33:42;;;;;;;3.77;2.90;;;9.20;99.90;;;;;;4955009;29;20251;-67
2023/04/09 05:36:07;;;;;;;2.53;2.33;;;9.20;99.90;;;;;;4955733;29;20197;-66
2023/04/09 05:38:33;;;;;;;3.47;3.17;;;9.30;99.90;;;;;;4955033;28;20188;-67
2023/04/09 05:40:59;;;;;;;2.13;2.03;;;9.50;99.90;;;;;;4953611;29;20255;-69
2023/04/09 05:43:25;;;;;;;1.97;1.80;;;9.70;99.90;;;;;;4955118;28;20207;-67
2023/04/09 05:45:51;;;;;;;3.03;2.10;;;9.70;99.90;;;;;;4946411;28;20198;-67
2023/04/09 05:48:17;;;;;;;2.40;1.93;;;9.80;99.90;;;;;;4944793;29;20457;-66
2023/04/09 05:50:49;;;;;;;1.90;1.80;;;10.10;99.90;;;;;;4954614;28;20532;-66
2023/04/09 05:53:15;;;;;;;2.13;2.00;;;10.30;99.90;;;;;;4954563;28;20186;-67
2023/04/09 05:55:40;;;;;;;3.13;2.33;;;10.60;99.90;;;;;;4947776;28;20564;-65
2023/04/09 05:58:06;;;;;;;1.50;1.40;;;10.90;99.90;;;;;;4935929;29;20186;-69
2023/04/09 06:00:32;;;;;;;2.00;1.83;;;11.20;99.90;;;;;;4936070;29;20269;-67
2023/04/09 06:02:57;;;;;;;2.83;2.20;;;11.40;99.90;;;;;;4935675;29;20204;-67
2023/04/09 06:05:23;;;;;;;1.90;1.80;;;11.70;99.90;;;;;;4941921;29;20200;-66
2023/04/09 06:07:48;;;;;;;1.57;1.47;;;12.00;99.90;;;;;;4954923;29;20237;-69
2023/04/09 06:10:14;;;;;;;1.83;1.53;;;12.20;99.90;;;;;;4955031;29;20642;-70
2023/04/09 06:12:40;;;;;;;5.20;3.17;;;12.20;99.90;;;;;;4938789;28;20262;-70
2023/04/09 06:15:06;;;;;;;2.30;2.20;;;12.30;99.90;;;;;;4944385;29;20262;-69
2023/04/09 06:17:31;;;;;;;3.00;2.80;;;12.40;99.90;;;;;;4953959;29;20175;-72
2023/04/09 06:19:57;;;;;;;1.93;1.83;;;12.60;99.90;;;;;;4954649;29;20466;-68
2023/04/09 06:22:23;;;;;;;2.20;2.10;;;12.70;99.90;;;;;;4955062;28;20571;-65
2023/04/09 06:24:48;;;;;;;2.27;2.07;;;12.70;99.90;;;;;;4954411;29;20455;-65
2023/04/09 06:27:14;;;;;;;1.50;1.40;;;12.70;99.90;;;;;;4954276;29;20176;-65
2023/04/09 06:29:40;;;;;;;1.90;1.77;;;12.60;99.90;;;;;;4950972;28;20188;-65
2023/04/09 06:32:05;;;;;;;1.90;1.80;;;12.50;99.90;;;;;;4945475;29;20176;-70
2023/04/09 06:34:31;;;;;;;2.40;2.00;;;12.40;99.90;;;;;;4952956;29;20210;-70
2023/04/09 06:36:56;;;;;;;2.47;2.27;;;12.30;99.90;;;;;;4951767;29;20180;-70
2023/04/09 06:39:22;;;;;;;3.43;2.50;;;12.20;99.90;;;;;;4952808;29;20655;-71
2023/04/09 06:41:48;;;;;;;1.87;1.67;;;12.20;99.90;;;;;;4942905;29;20176;-69
2023/04/09 06:44:13;;;;;;;1.60;1.40;;;12.40;99.90;;;;;;4954324;28;20192;-64
2023/04/09 06:46:39;;;;;;;2.30;2.10;;;12.50;99.90;;;;;;4954667;29;20177;-65
2023/04/09 06:49:04;;;;;;;3.00;2.07;;;12.60;99.90;;;;;;4942406;28;20178;-65
2023/04/09 06:51:30;;;;;;;2.80;2.60;;;12.70;99.90;;;;;;4941612;29;20180;-64
2023/04/09 06:53:56;;;;;;;2.50;2.20;;;12.90;99.90;;;;;;4950892;29;20259;-70
2023/04/09 06:56:21;;;;;;;2.83;2.63;;;13.10;99.90;;;;;;4941656;29;20185;-65
2023/04/09 06:58:47;;;;;;;2.17;1.97;;;13.20;99.40;;;;;;4954596;29;20188;-65
2023/04/09 07:01:13;;;;;;;3.33;2.10;;;13.20;99.60;;;;;;4954601;29;20664;-66
2023/04/09 07:03:39;;;;;;;2.67;1.83;;;13.30;99.80;;;;;;4954354;29;20204;-64
2023/04/09 07:06:05;;;;;;;2.60;2.07;;;13.60;99.40;;;;;;4944650;29;20250;-66
2023/04/09 07:08:30;;;;;;;2.90;2.70;;;14.10;99.10;;;;;;4949435;29;20889;-64
2023/04/09 07:10:56;;;;;;;2.20;2.10;;;14.50;97.80;;;;;;4954336;28;20187;-68
2023/04/09 07:13:22;;;;;;;2.13;1.80;;;14.80;96.60;;;;;;4955267;28;20271;-68
2023/04/09 07:15:47;;;;;;;2.30;2.10;;;15.20;97.30;;;;;;4957344;29;20658;-67
2023/04/09 07:18:13;;;;;;;2.67;2.47;;;15.90;95.70;;;;;;4951197;29;20191;-68
2023/04/09 07:20:38;;;;;;;5.10;2.20;;;16.50;95.20;;;;;;4957387;29;20208;-66
2023/04/09 07:23:04;;;;;;;2.73;2.53;;;17.10;93.70;;;;;;4953564;29;20189;-67
2023/04/09 07:25:30;;;;;;;2.60;2.17;;;17.50;92.50;;;;;;4952967;28;20227;-67
2023/04/09 07:27:56;;;;;;;2.97;2.67;;;17.60;91.30;;;;;;4954926;29;20185;-70
2023/04/09 07:30:21;;;;;;;2.70;2.50;;;17.50;91.50;;;;;;4957525;28;20180;-66
2023/04/09 07:32:47;;;;;;;3.27;2.80;;;17.70;91.30;;;;;;4957559;28;20575;-65
2023/04/09 07:35:12;;;;;;;3.50;2.47;;;17.90;90.30;;;;;;4949745;28;20534;-64
2023/04/09 07:37:38;;;;;;;2.33;2.20;;;17.70;89.30;;;;;;4948375;29;20231;-65
2023/04/09 07:40:04;;;;;;;1.87;1.70;;;17.50;90.10;;;;;;4941379;29;20676;-67
2023/04/09 07:42:30;;;;;;;2.27;2.10;;;17.30;89.10;;;;;;4940689;29;20524;-66
2023/04/09 07:44:56;;;;;;;1.97;1.83;;;17.00;88.20;;;;;;4956088;28;20517;-65
2023/04/09 07:47:22;;;;;;;2.20;2.00;;;16.60;88.70;;;;;;4955403;29;20723;-67
2023/04/09 07:49:48;;;;;;;2.23;2.03;;;16.40;88.10;;;;;;4955163;29;20251;-66
2023/04/09 07:52:13;;;;;;;1.83;1.57;;;16.20;88.50;;;;;;4943528;28;20427;-69
2023/04/09 07:54:39;;;;;;;2.07;1.60;;;16.40;88.70;;;;;;4953684;29;20209;-65
2023/04/09 07:57:05;;;;;;;2.30;2.10;;;16.70;88.20;;;;;;4947804;29;20273;-66
2023/04/09 07:59:31;;;;;;;2.00;1.90;;;17.20;86.60;;;;;;4944784;29;20595;-68
2023/04/09 08:01:57;;;;;;;2.40;2.10;;;17.70;85.10;;;;;;4943769;28;20500;-69
2023/04/09 08:04:23;;;;;;;1.73;1.60;;;18.40;84.40;;;;;;4956343;28;20442;-69
2023/04/09 08:06:49;;;;;;;2.80;2.47;;;19.10;80.50;;;;;;4956460;29;20742;-64
2023/04/09 08:09:19;;;;;;;2.27;2.17;;;19.50;78.40;;;;;;4956348;28;20333;-69
2023/04/09 08:11:46;;;;;;;2.10;2.00;;;19.60;77.80;;;;;;4954837;28;20414;-66
2023/04/09 08:14:12;;;;;;;2.83;2.70;;;19.70;77.50;;;;;;4945055;28;20460;-67
2023/04/09 08:16:46;;;;;;;2.20;1.73;;;19.80;76.90;;;;;;4955715;29;20429;-64
2023/04/09 08:19:13;;;;;;;3.47;2.40;;;20.00;76.30;;;;;;4953783;28;20467;-65
2023/04/09 08:21:42;;;;;;;1.93;1.83;;;20.30;75.10;;;;;;4955431;28;20422;-65
2023/04/09 08:24:10;;;;;;;2.07;1.97;;;20.40;72.90;;;;;;4954698;28;20443;-67
2023/04/09 08:26:36;;;;;;;2.50;2.30;;;20.30;71.90;;;;;;4955524;28;20447;-76
2023/04/09 08:29:02;;;;;;;1.80;1.67;;;20.40;72.60;;;;;;4956621;28;20436;-66
2023/04/09 08:31:28;;;;;;;2.77;2.33;;;20.40;73.10;;;;;;4955108;29;21013;-65
2023/04/09 08:33:53;;;;;;;2.53;2.27;;;20.60;72.00;;;;;;4954386;29;20260;-71
2023/04/09 08:36:20;;;;;;;2.33;2.23;;;20.80;70.20;;;;;;4955273;28;20304;-70
2023/04/09 08:38:46;;;;;;;2.23;2.03;;;21.10;68.50;;;;;;4950181;28;20562;-68
2023/04/09 08:41:23;;;;;;;2.40;1.57;;;21.30;67.00;;;;;;4955759;28;20738;-71
2023/04/09 08:43:50;;;;;;;2.73;2.53;;;21.70;67.20;;;;;;4955579;28;20393;-64
2023/04/09 08:46:17;;;;;;;1.97;1.83;;;22.10;66.40;;;;;;4956091;28;20415;-72
2023/04/09 08:48:47;;;;;;;2.70;2.27;;;22.40;65.40;;;;;;4950310;28;20519;-69
2023/04/09 08:51:20;;;;;;;2.63;2.43;;;22.70;64.50;;;;;;4951666;29;20503;-74
2023/04/09 08:53:59;;;;;;;2.80;2.43;;;22.90;63.00;;;;;;4953030;28;20419;-71
2023/04/09 08:56:25;;;;;;;2.80;2.50;;;22.90;61.00;;;;;;4953452;28;20438;-73
2023/04/09 08:58:52;;;;;;;2.63;2.20;;;22.50;60.40;;;;;;4952827;28;20446;-67
2023/04/09 09:01:30;;;;;;;3.00;2.40;;;22.40;61.60;;;;;;4956105;28;20181;-69
2023/04/09 09:04:03;;;;;;;2.70;2.23;;;22.60;61.90;;;;;;4953041;28;20527;-65
2023/04/09 09:06:31;;;;;;;2.27;2.10;;;22.60;62.60;;;;;;4954451;29;20783;-69
2023/04/09 09:09:16;;;;;;;2.57;2.37;;;22.60;60.00;;;;;;4955031;28;20508;-68
2023/04/09 09:11:43;;;;;;;2.70;2.50;;;22.20;60.30;;;;;;4955390;28;20491;-68
2023/04/09 09:14:11;;;;;;;3.03;2.77;;;21.90;61.60;;;;;;4953922;28;20434;-70
2023/04/09 09:16:43;;;;;;;1.70;1.60;;;21.20;63.40;;;;;;4954053;28;20484;-68
2023/04/09 09:19:26;;;;;;;1.80;1.70;;;20.60;65.00;;;;;;4954708;28;20513;-76
2023/04/09 09:21:58;;;;;;;2.13;2.00;;;20.10;65.60;;;;;;4954682;28;20469;-73
2023/04/09 09:24:24;;;;;;;2.43;2.33;;;19.50;65.50;;;;;;4953252;28;20515;-67
2023/04/09 09:26:51;;;;;;;2.13;2.03;;;18.60;67.10;;;;;;4951131;28;20487;-70
2023/04/09 09:29:17;;;;;;;2.07;1.87;;;17.60;70.40;;;;;;4947726;29;20939;-68
2023/04/09 09:31:50;;;;;;;2.57;2.37;;;17.10;73.70;;;;;;4954329;29;20471;-66
2023/04/09 09:34:17;;;;;;;2.57;2.20;;;17.50;74.10;;;;;;4952219;29;20215;-69
2023/04/09 09:36:43;;;;;;;1.80;1.70;;;18.50;73.70;;;;;;4951345;28;20796;-69
2023/04/09 09:39:11;;;;;;;1.70;1.60;;;18.90;69.60;;;;;;4954105;28;20461;-68
2023/04/09 09:41:41;;;;;;;2.97;2.43;;;18.20;68.50;;;;;;4950261;28;20427;-71
2023/04/09 09:44:07;;;;;;;4.80;1.80;;;17.30;70.60;;;;;;4935983;29;20444;-67
2023/04/09 09:46:35;;;;;;;3.33;3.13;;;16.40;72.70;;;;;;4951031;29;20456;-68
2023/04/09 09:49:01;;;;;;;2.43;2.23;;;15.70;75.00;;;;;;4954168;28;20436;-69
2023/04/09 09:51:27;;;;;;;3.23;2.10;;;15.40;77.10;;;;;;4955119;29;20968;-70
2023/04/09 09:53:56;;;;;;;2.60;2.40;;;15.00;79.30;;;;;;4953597;28;20171;-69
2023/04/09 09:56:25;;;;;;;2.07;1.97;;;15.30;80.20;;;;;;4952710;29;20409;-67
2023/04/09 09:59:18;;;;;;;2.80;1.80;;;16.30;78.60;;;;;;4952729;28;20500;-67
2023/04/09 10:01:46;;;;;;;2.13;1.93;;;17.60;76.10;;;;;;4947385;29;20923;-68
2023/04/09 10:04:14;;;;;;;2.90;2.57;;;18.20;71.80;;;;;;4953223;29;20440;-73
2023/04/09 10:06:43;;;;;;;2.03;1.90;;;18.00;70.20;;;;;;4953620;28;20460;-71
2023/04/09 10:09:09;;;;;;;2.07;1.97;;;18.10;71.10;;;;;;4951740;28;20411;-72
2023/04/09 10:11:36;;;;;;;2.50;2.30;;;18.60;71.60;;;;;;4947144;29;20903;-69
2023/04/09 10:14:04;;;;;;;1.50;1.40;;;19.10;70.30;;;;;;4952723;28;20450;-70
2023/04/09 10:16:30;;;;;;;1.40;1.30;;;19.10;66.80;;;;;;4954655;28;20413;-67
2023/04/09 10:18:56;;;;;;;1.87;1.73;;;19.10;65.90;;;;;;4954186;28;20387;-70
2023/04/09 10:21:35;;;;;;;2.47;2.30;;;19.10;67.00;;;;;;4942518;29;20750;-74
2023/04/09 10:24:04;;;;;;;2.40;2.00;;;19.10;66.60;;;;;;4951524;29;20484;-73
2023/04/09 10:26:32;;;;;;;2.00;1.90;;;18.90;67.70;;;;;;4952931;28;20807;-72
2023/04/09 10:29:08;;;;;;;1.50;1.40;;;18.40;68.10;;;;;;4948403;28;20432;-72
2023/04/09 10:31:54;;;;;;;2.40;2.30;;;17.80;68.80;;;;;;4941207;29;20430;-71
2023/04/09 10:34:22;;;;;;;2.50;2.30;;;17.90;71.60;;;;;;4953619;28;20464;-69
2023/04/09 10:36:56;;;;;;;1.40;1.30;;;18.20;69.20;;;;;;4935538;29;20505;-72
2023/04/09 10:39:27;;;;;;;1.63;1.53;;;18.10;67.20;;;;;;4950707;29;20776;-72
2023/04/09 10:41:54;;;;;;;2.20;2.10;;;17.80;66.90;;;;;;4954108;28;20869;-67
2023/04/09 10:44:21;;;;;;;1.33;1.17;;;17.40;65.90;;;;;;4951621;28;20464;-65
2023/04/09 10:46:48;;;;;;;2.40;1.90;;;17.30;65.80;;;;;;4953589;28;20820;-66
2023/04/09 10:49:19;;;;;;;1.67;1.47;;;17.60;66.20;;;;;;4957210;28;20379;-67
2023/04/09 10:52:09;;;;;;;1.23;1.17;;;18.00;64.70;;;;;;4957051;28;20434;-69
2023/04/09 10:54:34;;;;;;;2.20;1.93;;;18.30;64.50;;;;;;4947467;29;20469;-71
2023/04/09 10:57:06;;;;;;;1.93;1.27;;;18.00;64.40;;;;;;4957196;28;20416;-70
2023/04/09 10:59:36;;;;;;;1.57;1.47;;;17.50;63.20;;;;;;4955288;29;20680;-68
2023/04/09 11:02:07;;;;;;;3.20;2.13;;;17.60;63.90;;;;;;4957558;29;20424;-71
2023/04/09 11:05:11;;;;;;;1.30;1.20;;;18.00;64.60;;;;;;4956961;28;20850;-71
2023/04/09 11:07:42;;;;;;;1.20;1.10;;;18.50;64.90;;;;;;4957903;29;20431;-72
2023/04/09 11:10:08;;;;;;;1.53;1.43;;;19.10;61.70;;;;;;4956571;29;20507;-70
2023/04/09 11:12:34;;;;;;;1.90;1.80;;;18.80;61.60;;;;;;4954792;29;20962;-68
2023/04/09 11:14:59;;;;;;;1.40;1.30;;;18.30;62.70;;;;;;4944354;29;20456;-70
2023/04/09 11:17:26;;;;;;;2.50;1.60;;;17.80;62.50;;;;;;4956759;29;20369;-69
2023/04/09 11:19:51;;;;;;;1.63;1.53;;;17.10;63.90;;;;;;4954918;28;20304;-69
2023/04/09 11:22:17;;;;;;;1.73;1.73;;;16.60;65.60;;;;;;4956382;29;20812;-70
2023/04/09 11:24:45;;;;;;;1.53;1.33;;;16.30;66.30;;;;;;4957174;29;20196;-64
2023/04/09 11:27:11;;;;;;;1.80;1.70;;;16.20;68.20;;;;;;4956787;28;20183;-70
2023/04/09 11:29:37;;;;;;;2.07;1.97;;;16.20;67.80;;;;;;4939412;29;20440;-72
2023/04/09 11:32:06;;;;;;;1.53;1.43;;;16.20;66.70;;;;;;4957387;28;20833;-66
2023/04/09 11:34:31;;;;;;;2.13;1.53;;;16.00;67.50;;;;;;4947025;28;20975;-70
2023/04/09 11:36:58;;;;;;;1.47;1.37;;;15.90;68.00;;;;;;4955933;29;20444;-70
2023/04/09 11:39:25;;;;;;;1.90;1.80;;;15.50;68.60;;;;;;4956099;29;20284;-69
2023/04/09 11:41:50;;;;;;;2.50;1.57;;;15.20;69.60;;;;;;4957593;29;20405;-69
2023/04/09 11:44:16;;;;;;;1.57;1.20;;;15.20;70.10;;;;;;4950690;29;20832;-68
2023/04/09 11:46:42;;;;;;;4.90;1.67;;;15.30;70.60;;;;;;4950282;29;20577;-71
2023/04/09 11:49:08;;;;;;;1.57;1.47;;;15.40;69.90;;;;;;4956220;28;20169;-72
2023/04/09 11:51:34;;;;;;;0.97;0.97;;;15.60;65.00;;;;;;4955877;29;20471;-72
2023/04/09 11:54:10;;;;;;;1.97;1.87;;;15.60;65.30;;;;;;4954704;28;20458;-67
2023/04/09 11:56:36;;;;;;;1.70;1.60;;;15.90;64.60;;;;;;4956275;29;20429;-66
2023/04/09 11:59:02;;;;;;;0.80;0.80;;;16.00;64.30;;;;;;4950542;28;20930;-67
2023/04/09 12:01:32;;;;;;;1.00;1.00;;;15.90;64.40;;;;;;4955754;29;20195;-67
2023/04/09 12:03:58;;;;;;;1.33;1.23;;;15.80;62.90;;;;;;4955216;28;20421;-68
2023/04/09 12:06:25;;;;;;;1.00;1.00;;;15.80;64.10;;;;;;4953028;28;20796;-69
2023/04/09 12:08:55;;;;;;;2.80;1.30;;;15.80;63.10;;;;;;4946307;29;20434;-67
2023/04/09 12:11:30;;;;;;;2.20;2.00;;;15.80;64.70;;;;;;4956587;28;20432;-68
2023/04/09 12:14:05;;;;;;;1.93;1.70;;;15.90;66.20;;;;;;4948576;29;20429;-68
2023/04/09 12:16:33;;;;;;;1.23;1.13;;;16.00;67.40;;;;;;4955588;28;20431;-65
2023/04/09 12:19:08;;;;;;;1.37;1.10;;;16.10;66.70;;;;;;4953469;29;20509;-65
2023/04/09 12:21:46;;;;;;;1.67;1.00;;;16.10;66.20;;;;;;4956762;28;20415;-64
2023/04/09 12:24:12;;;;;;;1.40;1.40;;;16.00;66.30;;;;;;4952923;28;20521;-67
2023/04/09 12:26:57;;;;;;;2.07;1.90;;;15.90;66.60;;;;;;4956813;28;20841;-67
2023/04/09 12:29:24;;;;;;;3.43;3.13;;;15.90;66.00;;;;;;4953002;29;20452;-67
2023/04/09 12:31:50;;;;;;;2.40;2.30;;;15.90;66.80;;;;;;4956212;28;20464;-66
2023/04/09 12:34:16;;;;;;;2.03;1.80;;;15.80;66.60;;;;;;4944852;28;20485;-65
2023/04/09 12:36:41;;;;;;;3.93;2.97;;;15.80;66.90;;;;;;4937136;29;20201;-69
2023/04/09 12:39:10;;;;;;;1.27;1.17;;;15.80;67.10;;;;;;4942108;29;20806;-66
2023/04/09 12:41:36;;;;;;;2.30;2.10;;;15.70;67.40;;;;;;4956391;29;20182;-67
2023/04/09 12:44:01;;;;;;;2.43;2.33;;;15.70;67.00;;;;;;4952078;29;20441;-66
2023/04/09 12:46:27;;;;;;;1.37;1.27;;;15.80;67.90;;;;;;4954314;28;20449;-67
2023/04/09 12:48:53;;;;;;;1.33;1.17;;;15.90;68.10;;;;;;4951263;29;20257;-70
2023/04/09 12:51:19;;;;;;;2.10;1.77;;;16.10;66.40;;;;;;4954522;29;20185;-67
2023/04/09 12:53:46;;;;;;;1.30;1.20;;;16.20;65.70;;;;;;4954281;29;20177;-66
2023/04/09 12:56:11;;;;;;;1.53;1.43;;;16.00;66.60;;;;;;4956249;29;20411;-67
2023/04/09 12:58:37;;;;;;;1.10;1.00;;;16.00;66.30;;;;;;4946281;29;20478;-66
2023/04/09 13:01:03;;;;;;;1.87;1.20;;;16.00;66.20;;;;;;4937030;29;20581;-65
2023/04/09 13:03:28;;;;;;;1.23;1.10;;;16.00;65.60;;;;;;4936618;29;20181;-65
2023/04/09 13:05:54;;;;;;;1.57;1.13;;;16.00;66.50;;;;;;4936745;29;20266;-66
2023/04/09 13:08:20;;;;;;;1.87;1.10;;;16.20;66.20;;;;;;4955283;29;20174;-65
2023/04/09 13:10:47;;;;;;;1.37;1.27;;;16.40;63.40;;;;;;4948744;28;20514;-67
2023/04/09 13:13:13;;;;;;;2.03;1.60;;;16.40;62.90;;;;;;4944336;29;20183;-65
2023/04/09 13:15:44;;;;;;;1.53;1.43;;;16.50;63.90;;;;;;4954814;28;20441;-66
2023/04/09 13:18:12;;;;;;;0.93;0.93;;;16.60;64.00;;;;;;4955564;29;20423;-66
2023/04/09 13:20:38;;;;;;;1.23;1.13;;;16.90;63.30;;;;;;4955312;29;21018;-65
2023/04/09 13:23:04;;;;;;;1.60;1.50;;;16.90;63.00;;;;;;4955632;29;20423;-67
2023/04/09 13:25:30;;;;;;;1.87;1.10;;;16.80;64.10;;;;;;4963984;28;20443;-66
2023/04/09 13:27:56;;;;;;;1.13;0.93;;;16.80;65.40;;;;;;4966030;29;20513;-65
2023/04/09 13:30:22;;;;;;;1.20;1.20;;;16.70;64.50;;;;;;4960075;29;20266;-66
2023/04/09 13:32:47;;;;;;;1.63;1.40;;;16.50;65.00;;;;;;4956519;29;20183;-65
2023/04/09 13:35:13;;;;;;;0.90;0.90;;;16.30;64.20;;;;;;4955872;28;20439;-65
2023/04/09 13:37:39;;;;;;;2.33;1.10;;;16.20;64.90;;;;;;4956334;29;20185;-66
2023/04/09 13:40:05;;;;;;;1.57;1.47;;;16.20;64.60;;;;;;4958847;29;20553;-67
2023/04/09 13:42:31;;;;;;;1.60;1.50;;;16.10;64.90;;;;;;4957280;28;20171;-69
2023/04/09 13:44:57;;;;;;;1.07;1.07;;;16.00;64.90;;;;;;4958527;29;20428;-67
2023/04/09 13:47:23;;;;;;;2.27;2.07;;;16.10;65.00;;;;;;4957547;28;20171;-67
2023/04/09 13:49:50;;;;;;;1.70;1.13;;;16.20;64.50;;;;;;4955250;29;20782;-66
2023/04/09 13:52:16;;;;;;;0.90;0.90;;;16.30;64.30;;;;;;4954368;28;20179;-66
2023/04/09 13:54:42;;;;;;;1.10;1.10;;;16.30;64.30;;;;;;4953860;29;20430;-66
2023/04/09 13:57:09;;;;;;;1.00;1.00;;;16.30;64.50;;;;;;4954687;29;20426;-66
2023/04/09 13:59:35;;;;;;;1.20;1.10;;;16.20;65.80;;;;;;4954336;29;20286;-65
2023/04/09 14:02:01;;;;;;;1.17;1.07;;;16.20;65.00;;;;;;4954968;28;20411;-65
2023/04/09 14:04:26;;;;;;;1.00;1.00;;;16.20;64.80;;;;;;4954481;29;20453;-64
2023/04/09 14:06:52;;;;;;;1.20;1.10;;;16.20;65.00;;;;;;4955141;28;20515;-65
2023/04/09 14:09:17;;;;;;;0.83;0.77;;;16.20;64.40;;;;;;4955213;29;20258;-65
2023/04/09 14:11:43;;;;;;;1.20;1.10;;;16.30;64.60;;;;;;4955239;29;20639;-66
2023/04/09 14:14:09;;;;;;;2.17;1.97;;;16.40;63.90;;;;;;4954777;29;20199;-65
2023/04/09 14:16:35;;;;;;;1.07;1.00;;;16.30;63.70;;;;;;4954991;28;20172;-65
2023/04/09 14:19:00;;;;;;;1.30;1.20;;;16.30;63.40;;;;;;4954718;29;20409;-65
2023/04/09 14:21:28;;;;;;;2.03;1.83;;;16.30;64.80;;;;;;4955351;28;20219;-66
2023/04/09 14:23:54;;;;;;;2.60;2.40;;;16.20;64.50;;;;;;4958583;29;20173;-66
2023/04/09 14:26:19;;;;;;;1.50;1.40;;;16.10;63.40;;;;;;4959016;29;20486;-66
2023/04/09 14:28:46;;;;;;;0.97;0.97;;;16.00;63.80;;;;;;4958829;28;20181;-65
2023/04/09 14:31:13;;;;;;;1.70;1.50;;;15.90;64.20;;;;;;4958801;28;20176;-66
2023/04/09 14:33:39;;;;;;;1.53;1.43;;;15.80;63.80;;;;;;4958068;28;20420;-66
2023/04/09 14:36:05;;;;;;;1.83;1.37;;;15.70;64.50;;;;;;4958679;28;20408;-64
2023/04/09 14:38:32;;;;;;;1.37;1.27;;;15.60;65.30;;;;;;4959074;28;20495;-65
2023/04/09 14:40:58;;;;;;;2.00;1.50;;;15.60;65.50;;;;;;4958550;28;20459;-65
2023/04/09 14:43:24;;;;;;;1.00;1.00;;;15.50;64.80;;;;;;4958246;29;20816;-65
2023/04/09 14:45:50;;;;;;;1.90;1.30;;;15.40;65.20;;;;;;4958128;28;20236;-66
2023/04/09 14:48:16;;;;;;;1.77;1.30;;;15.40;66.30;;;;;;4957952;28;20771;-64
2023/04/09 14:50:41;;;;;;;2.00;1.37;;;15.40;66.00;;;;;;4958346;29;20396;-65
2023/04/09 14:53:08;;;;;;;1.67;1.57;;;15.40;65.40;;;;;;4956993;29;20654;-65
2023/04/09 14:55:34;;;;;;;1.40;1.30;;;15.40;64.30;;;;;;4958480;28;20474;-65
2023/04/09 14:58:02;;;;;;;1.60;1.50;;;15.40;65.10;;;;;;4958490;28;20260;-64
2023/04/09 15:00:28;;;;;;;1.53;1.30;;;15.40;63.70;;;;;;4957816;28;20223;-65
2023/04/09 15:02:53;;;;;;;3.20;2.73;;;15.30;64.30;;;;;;4957844;29;20415;-66
2023/04/09 15:05:19;;;;;;;5.13;1.83;;;15.30;64.70;;;;;;4957704;28;20263;-66
2023/04/09 15:07:45;;;;;;;1.53;1.43;;;15.20;64.40;;;;;;4958321;29;20574;-65
2023/04/09 15:10:11;;;;;;;1.27;1.17;;;15.20;64.50;;;;;;4958344;29;20177;-65
2023/04/09 15:12:36;;;;;;;1.47;1.20;;;15.20;66.10;;;;;;4958704;28;20173;-65
2023/04/09 15:15:05;;;;;;;1.33;1.33;;;15.30;65.10;;;;;;4957299;29;20456;-66
2023/04/09 15:17:31;;;;;;;1.30;1.20;;;15.30;63.50;;;;;;4956384;29;20711;-66
2023/04/09 15:19:57;;;;;;;2.80;2.20;;;15.30;63.00;;;;;;4957855;28;20547;-64
2023/04/09 15:22:23;;;;;;;1.87;1.70;;;15.30;63.50;;;;;;4958167;29;20169;-65
2023/04/09 15:24:50;;;;;;;1.20;1.20;;;15.30;64.80;;;;;;4957517;29;20503;-65
2023/04/09 15:27:16;;;;;;;1.83;1.73;;;15.30;64.80;;;;;;4957704;28;20520;-65
2023/04/09 15:29:42;;;;;;;1.10;1.10;;;15.30;66.60;;;;;;4958019;28;20424;-64
2023/04/09 15:32:07;;;;;;;1.87;1.77;;;15.30;66.80;;;;;;4957773;28;20409;-66
2023/04/09 15:34:33;;;;;;;1.93;1.07;;;15.40;65.40;;;;;;4956668;28;20934;-65
2023/04/09 15:36:59;;;;;;;1.67;1.57;;;15.30;65.70;;;;;;4957169;29;20184;-65
2023/04/09 15:39:27;;;;;;;2.40;2.20;;;15.10;66.20;;;;;;4956701;28;20192;-66
2023/04/09 15:41:54;;;;;;;1.97;1.87;;;14.90;66.70;;;;;;4957038;28;20165;-67
2023/04/09 15:44:20;;;;;;;2.10;1.53;;;14.80;66.90;;;;;;4956649;28;20448;-66
2023/04/09 15:46:45;;;;;;;2.10;1.63;;;14.70;67.40;;;;;;4957727;28;20833;-66
2023/04/09 15:49:11;;;;;;;1.37;1.03;;;14.50;68.30;;;;;;4956057;29;20180;-66
2023/04/09 15:51:37;;;;;;;1.40;1.40;;;14.40;68.80;;;;;;4957063;29;20534;-65
2023/04/09 15:54:03;;;;;;;1.03;1.03;;;14.40;69.20;;;;;;4956422;29;20200;-66
2023/04/09 15:56:28;;;;;;;1.77;1.30;;;14.30;69.40;;;;;;4957193;28;20165;-64
2023/04/09 15:58:54;;;;;;;2.00;1.90;;;14.30;69.50;;;;;;4957105;29;20420;-65
2023/04/09 16:01:20;;;;;;;1.50;1.20;;;14.30;69.50;;;;;;4956445;29;20295;-65
2023/04/09 16:03:50;;;;;;;3.83;2.13;;;14.30;69.20;;;;;;4955470;28;20287;-65
2023/04/09 16:06:16;;;;;;;1.50;1.40;;;14.30;69.40;;;;;;4956856;28;20195;-65
2023/04/09 16:08:42;;;;;;;1.10;1.00;;;14.30;68.60;;;;;;4956314;28;20514;-65
2023/04/09 16:11:09;;;;;;;1.67;1.57;;;14.30;68.10;;;;;;4956364;29;20455;-65
2023/04/09 16:13:35;;;;;;;1.60;1.43;;;14.30;68.80;;;;;;4955263;28;20183;-65
2023/04/09 16:16:01;;;;;;;2.03;1.63;;;14.30;68.50;;;;;;4946887;28;20447;-64
2023/04/09 16:18:27;;;;;;;1.30;1.30;;;14.20;68.70;;;;;;4956729;28;20463;-64
2023/04/09 16:20:54;;;;;;;1.20;1.10;;;14.30;68.10;;;;;;4953968;29;20671;-65
2023/04/09 16:23:21;;;;;;;1.43;1.33;;;14.30;67.70;;;;;;4955792;28;20589;-66
2023/04/09 16:25:46;;;;;;;1.30;1.20;;;14.20;68.30;;;;;;4956561;28;20782;-66
2023/04/09 16:28:15;;;;;;;1.90;1.60;;;14.30;68.20;;;;;;4956537;29;20430;-66
2023/04/09 16:30:41;;;;;;;0.77;0.77;;;14.20;67.90;;;;;;4956040;28;20263;-66
2023/04/09 16:33:09;;;;;;;1.50;1.40;;;14.20;68.10;;;;;;4956081;29;20426;-65
2023/04/09 16:35:37;;;;;;;2.27;1.30;;;14.20;67.90;;;;;;4956415;28;20846;-65
2023/04/09 16:38:03;;;;;;;1.33;1.23;;;14.10;67.80;;;;;;4956152;29;20424;-66
2023/04/09 16:40:29;;;;;;;1.60;1.50;;;14.10;67.90;;;;;;4956410;28;20463;-66
2023/04/09 16:42:55;;;;;;;2.30;1.80;;;14.10;68.30;;;;;;4955799;29;20462;-64
2023/04/09 16:45:20;;;;;;;1.50;1.40;;;14.10;67.10;;;;;;4955434;28;20661;-66
2023/04/09 16:47:47;;;;;;;1.60;1.50;;;14.10;67.50;;;;;;4956077;28;20187;-65
2023/04/09 16:50:12;;;;;;;1.23;1.17;;;14.10;67.50;;;;;;4956402;28;20176;-66
2023/04/09 16:52:39;;;;;;;1.57;1.47;;;14.10;68.00;;;;;;4956235;29;20438;-65